createdAt,value
2023-03-01T00:01:56.577Z,27.17
2023-03-01T00:04:29.895Z,28.65
2023-03-01T00:07:03.580Z,28.77
2023-03-01T00:09:38.695Z,27.36
2023-03-01T00:25:53.566Z,28.10
2023-03-01T00:28:27.023Z,28.01
2023-03-01T00:31:00.538Z,28.12
2023-03-01T00:33:34.339Z,27.77
2023-03-01T00:36:09.838Z,28.22
2023-03-01T00:38:45.700Z,27.54
2023-03-01T00:50:36.496Z,28.59
2023-03-01T00:53:16.516Z,28.67
2023-03-01T00:55:50.197Z,27.86
2023-03-01T00:58:23.557Z,28.73
2023-03-01T01:00:57.000Z,27.82
2023-03-01T01:03:35.556Z,28.39
2023-03-01T01:17:04.551Z,28.77
2023-03-01T01:19:37.994Z,29.22
2023-03-01T01:22:11.557Z,28.90
2023-03-01T01:24:44.810Z,28.48
2023-03-01T01:27:24.567Z,29.04
2023-03-01T01:29:58.026Z,29.66
2023-03-01T01:46:26.544Z,30.41
2023-03-01T01:49:04.669Z,29.74
2023-03-01T01:51:49.541Z,30.14
2023-03-01T01:54:30.295Z,29.98
2023-03-01T01:57:23.498Z,30.85
2023-03-01T02:00:05.233Z,31.03
2023-03-01T02:10:24.466Z,30.79
2023-03-01T02:13:01.507Z,29.53
2023-03-01T02:15:43.570Z,28.84
2023-03-01T02:18:20.904Z,27.77
2023-03-01T02:21:33.488Z,27.29
2023-03-01T02:24:25.117Z,27.86
2023-03-01T02:37:25.503Z,28.76
2023-03-01T02:40:12.164Z,29.41
2023-03-01T02:42:54.258Z,28.44
2023-03-01T02:45:34.593Z,27.71
2023-03-01T02:48:08.475Z,28.57
2023-03-01T02:51:14.550Z,29.33
2023-03-01T02:54:08.052Z,29.05
2023-03-01T03:04:02.507Z,29.01
2023-03-01T03:06:36.924Z,29.38
2023-03-01T03:09:12.475Z,28.80
2023-03-01T03:11:47.158Z,29.40
2023-03-01T03:14:23.480Z,29.86
2023-03-01T03:16:56.954Z,30.32
2023-03-01T03:19:30.533Z,30.74
2023-03-01T03:32:42.534Z,31.04
2023-03-01T03:35:15.733Z,31.42
2023-03-01T03:37:56.491Z,31.56
2023-03-01T03:40:35.760Z,31.26
2023-03-01T03:43:19.261Z,31.20
2023-03-01T03:59:56.441Z,32.78
2023-03-01T04:02:46.575Z,31.20
2023-03-01T04:05:20.307Z,31.35
2023-03-01T04:07:53.500Z,31.89
2023-03-01T04:10:27.848Z,32.00
2023-03-01T04:13:01.483Z,32.19
2023-03-01T04:26:13.476Z,32.24
2023-03-01T04:28:47.409Z,31.18
2023-03-01T04:31:23.552Z,31.15
2023-03-01T04:33:57.066Z,30.70
2023-03-01T04:36:34.778Z,30.98
2023-03-01T04:39:09.032Z,30.58
2023-03-01T04:51:59.483Z,28.71
2023-03-01T04:54:41.458Z,30.55
2023-03-01T04:57:14.783Z,30.09
2023-03-01T04:59:48.464Z,30.45
2023-03-01T05:02:21.915Z,30.71
2023-03-01T05:04:55.502Z,30.81
2023-03-01T05:18:07.477Z,32.04
2023-03-01T05:20:40.871Z,32.00
2023-03-01T05:23:14.468Z,31.36
2023-03-01T05:25:47.829Z,31.61
2023-03-01T05:28:21.515Z,31.25
2023-03-01T05:30:55.415Z,31.04
2023-03-01T05:33:32.439Z,31.87
2023-03-01T05:46:42.485Z,33.95
2023-03-01T05:49:18.131Z,32.86
2023-03-01T05:51:58.182Z,32.55
2023-03-01T05:54:31.835Z,32.46
2023-03-01T05:57:05.452Z,33.07
2023-03-01T05:59:38.837Z,34.27
2023-03-01T06:12:29.408Z,32.77
2023-03-01T06:15:12.456Z,34.77
2023-03-01T06:17:47.408Z,34.40
2023-03-01T06:20:24.766Z,33.96
2023-03-01T06:22:58.684Z,33.97
2023-03-01T06:25:34.441Z,34.38
2023-03-01T06:38:53.429Z,36.45
2023-03-01T06:41:26.801Z,36.10
2023-03-01T06:44:00.449Z,35.10
2023-03-01T06:46:33.888Z,34.21
2023-03-01T06:49:07.379Z,34.04
2023-03-01T06:51:40.664Z,35.02
2023-03-01T06:54:17.182Z,34.67
2023-03-01T07:04:47.335Z,33.91
2023-03-01T07:07:27.383Z,33.47
2023-03-01T07:10:03.187Z,33.78
2023-03-01T07:12:36.361Z,33.77
2023-03-01T07:15:11.053Z,34.76
2023-03-01T07:17:44.415Z,33.73
2023-03-01T07:20:18.644Z,35.12
2023-03-01T07:33:08.420Z,37.06
2023-03-01T07:35:48.421Z,37.26
2023-03-01T07:38:21.611Z,38.05
2023-03-01T07:40:55.368Z,37.81
2023-03-01T07:43:29.777Z,38.78
2023-03-01T07:59:45.592Z,39.84
2023-03-01T08:02:18.629Z,40.67
2023-03-01T08:04:59.861Z,39.60
2023-03-01T08:07:34.178Z,40.11
2023-03-01T08:10:07.348Z,41.47
2023-03-01T08:12:40.742Z,41.18
2023-03-01T08:15:17.349Z,40.15
2023-03-01T08:25:03.346Z,40.17
2023-03-01T08:27:43.356Z,40.58
2023-03-01T08:30:18.977Z,40.38
2023-03-01T08:32:52.528Z,40.43
2023-03-01T08:35:25.713Z,39.50
2023-03-01T08:37:59.326Z,40.00
2023-03-01T08:40:32.606Z,38.46
2023-03-01T08:53:22.340Z,40.02
2023-03-01T08:56:02.324Z,39.85
2023-03-01T08:58:36.128Z,40.46
2023-03-01T09:01:16.024Z,39.57
2023-03-01T09:03:49.753Z,39.39
2023-03-01T09:20:05.685Z,38.89
2023-03-01T09:22:38.641Z,39.50
2023-03-01T09:25:13.357Z,39.16
2023-03-01T09:27:46.620Z,38.82
2023-03-01T09:30:21.426Z,37.29
2023-03-01T09:32:56.341Z,38.09
2023-03-01T09:35:31.400Z,39.80
2023-03-01T09:45:31.320Z,39.92
2023-03-01T09:48:15.329Z,37.73
2023-03-01T09:50:52.383Z,37.49
2023-03-01T09:53:39.330Z,36.81
2023-03-01T09:56:22.611Z,37.04
2023-03-01T09:59:23.395Z,37.00
2023-03-01T10:12:42.345Z,36.32
2023-03-01T10:15:26.022Z,35.88
2023-03-01T10:18:17.372Z,36.54
2023-03-01T10:20:56.959Z,35.45
2023-03-01T10:23:41.330Z,34.87
2023-03-01T10:40:18.297Z,35.27
2023-03-01T10:42:58.336Z,36.22
2023-03-01T10:45:36.336Z,36.82
2023-03-01T10:48:21.341Z,37.46
2023-03-01T10:51:08.229Z,37.85
2023-03-01T10:53:53.316Z,38.06
2023-03-01T11:07:10.279Z,38.58
2023-03-01T11:09:43.589Z,40.18
2023-03-01T11:12:23.315Z,40.07
2023-03-01T11:14:56.694Z,38.13
2023-03-01T11:17:48.037Z,38.21
2023-03-01T11:20:35.069Z,38.62
2023-03-01T11:32:41.479Z,37.39
2023-03-01T11:35:28.319Z,40.51
2023-03-01T11:38:20.665Z,40.39
2023-03-01T11:41:08.320Z,37.58
2023-03-01T11:43:52.802Z,37.61
2023-03-01T12:00:56.325Z,33.22
2023-03-01T12:03:47.222Z,33.67
2023-03-01T12:06:56.080Z,31.35
2023-03-01T12:10:05.363Z,29.81
2023-03-01T12:13:11.023Z,29.83
2023-03-01T12:26:34.332Z,26.10
2023-03-01T12:29:24.682Z,24.07
2023-03-01T12:32:36.617Z,24.33
2023-03-01T12:35:36.759Z,23.92
2023-03-01T12:38:48.412Z,22.96
2023-03-01T12:52:39.312Z,25.53
2023-03-01T12:55:29.393Z,24.57
2023-03-01T12:58:34.148Z,24.71
2023-03-01T13:01:26.335Z,24.85
2023-03-01T13:04:30.328Z,24.94
2023-03-01T13:21:10.272Z,14.50
2023-03-01T13:23:55.276Z,14.40
2023-03-01T13:26:28.660Z,15.70
2023-03-01T13:29:04.293Z,16.59
2023-03-01T13:32:01.305Z,17.46
2023-03-01T13:34:53.310Z,16.81
2023-03-01T13:48:10.300Z,18.04
2023-03-01T13:50:52.084Z,16.87
2023-03-01T13:53:38.328Z,17.77
2023-03-01T13:56:18.759Z,18.05
2023-03-01T13:59:04.296Z,17.98
2023-03-01T14:12:51.315Z,14.15
2023-03-01T14:15:34.810Z,14.58
2023-03-01T14:18:23.303Z,14.12
2023-03-01T14:20:56.643Z,13.37
2023-03-01T14:23:32.594Z,13.80
2023-03-01T14:26:05.658Z,14.06
2023-03-01T14:28:45.684Z,14.58
2023-03-01T14:41:56.289Z,13.79
2023-03-01T14:44:26.257Z,13.14
2023-03-01T14:47:06.287Z,12.72
2023-03-01T14:49:39.873Z,11.95
2023-03-01T14:52:25.290Z,11.23
2023-03-01T14:54:58.780Z,11.11
2023-03-01T15:07:52.257Z,10.81
2023-03-01T15:10:36.289Z,11.04
2023-03-01T15:13:14.505Z,11.26
2023-03-01T15:15:57.313Z,11.34
2023-03-01T15:18:30.908Z,11.09
2023-03-01T15:34:46.289Z,13.46
2023-03-01T15:37:40.837Z,13.01
2023-03-01T15:40:32.424Z,13.02
2023-03-01T15:43:14.360Z,14.43
2023-03-01T15:46:04.317Z,14.29
2023-03-01T15:48:38.554Z,14.23
2023-03-01T16:01:28.260Z,14.46
2023-03-01T16:04:12.318Z,14.32
2023-03-01T16:06:45.504Z,14.58
2023-03-01T16:09:12.261Z,15.31
2023-03-01T16:11:52.282Z,15.48
2023-03-01T16:14:25.580Z,15.16
2023-03-01T16:27:16.272Z,16.43
2023-03-01T16:29:57.563Z,15.98
2023-03-01T16:32:30.666Z,15.72
2023-03-01T16:35:04.276Z,15.82
2023-03-01T16:37:38.753Z,16.57
2023-03-01T16:40:24.282Z,17.54
2023-03-01T16:54:07.286Z,16.46
2023-03-01T16:56:40.665Z,16.66
2023-03-01T16:59:14.261Z,16.10
2023-03-01T17:01:47.553Z,16.09
2023-03-01T17:04:35.286Z,16.58
2023-03-01T17:07:08.524Z,16.73
2023-03-01T17:20:11.265Z,16.41
2023-03-01T17:22:51.268Z,16.27
2023-03-01T17:25:24.572Z,16.90
2023-03-01T17:27:58.268Z,17.33
2023-03-01T17:30:31.786Z,16.91
2023-03-01T17:33:06.159Z,17.61
2023-03-01T17:46:52.268Z,17.25
2023-03-01T17:49:25.605Z,16.55
2023-03-01T17:51:59.263Z,16.37
2023-03-01T17:54:33.255Z,16.32
2023-03-01T17:57:07.278Z,15.66
2023-03-01T17:59:40.505Z,16.47
2023-03-01T18:02:18.301Z,16.81
2023-03-01T18:15:28.415Z,17.07
2023-03-01T18:18:03.715Z,17.08
2023-03-01T18:20:37.289Z,17.21
2023-03-01T18:23:10.607Z,16.82
2023-03-01T18:25:46.262Z,17.52
2023-03-01T18:28:19.666Z,17.51
2023-03-01T18:41:10.230Z,20.73
2023-03-01T18:43:50.265Z,19.37
2023-03-01T18:46:24.190Z,19.91
2023-03-01T18:49:01.238Z,20.81
2023-03-01T18:51:34.891Z,19.70
2023-03-01T19:07:10.259Z,20.56
2023-03-01T19:09:43.653Z,21.11
2023-03-01T19:12:17.254Z,21.18
2023-03-01T19:14:50.597Z,21.84
2023-03-01T19:19:54.553Z,22.13
2023-03-01T19:22:23.264Z,22.05
2023-03-01T19:35:18.206Z,23.42
2023-03-01T19:38:00.245Z,24.51
2023-03-01T19:40:35.616Z,25.16
2023-03-01T19:43:10.065Z,26.12
2023-03-01T19:45:43.593Z,26.03
2023-03-01T19:48:17.246Z,26.40
2023-03-01T20:01:29.273Z,28.12
2023-03-01T20:04:03.945Z,27.93
2023-03-01T20:06:37.232Z,28.17
2023-03-01T20:09:21.162Z,28.16
2023-03-01T20:12:02.237Z,28.34
2023-03-01T20:28:40.824Z,27.97
2023-03-01T20:31:24.227Z,28.20
2023-03-01T20:33:59.423Z,28.96
2023-03-01T20:36:34.764Z,28.57
2023-03-01T20:39:08.897Z,27.60
2023-03-01T20:41:42.229Z,27.80
2023-03-01T20:54:54.234Z,29.08
2023-03-01T20:57:27.469Z,29.50
2023-03-01T21:00:01.205Z,29.93
2023-03-01T21:02:34.648Z,29.42
2023-03-01T21:05:14.229Z,29.19
2023-03-01T21:07:47.510Z,28.76
2023-03-01T21:20:53.212Z,28.75
2023-03-01T21:23:36.224Z,29.90
2023-03-01T21:26:13.244Z,28.77
2023-03-01T21:28:55.228Z,28.70
2023-03-01T21:31:31.683Z,28.22
2023-03-01T21:47:37.226Z,31.00
2023-03-01T21:50:11.807Z,30.00
2023-03-01T21:52:46.521Z,29.08
2023-03-01T21:55:19.571Z,29.26
2023-03-01T21:57:53.226Z,30.29
2023-03-01T22:00:26.948Z,29.73
2023-03-01T22:03:02.293Z,29.73
2023-03-01T22:15:14.198Z,29.08
2023-03-01T22:17:47.628Z,30.50
2023-03-01T22:20:23.228Z,29.38
2023-03-01T22:22:56.439Z,30.90
2023-03-01T22:25:30.206Z,31.11
2023-03-01T22:28:03.956Z,30.91
2023-03-01T22:41:10.185Z,31.03
2023-03-01T22:43:53.197Z,32.15
2023-03-01T22:46:29.148Z,31.27
2023-03-01T22:49:03.201Z,30.92
2023-03-01T22:51:39.575Z,31.26
2023-03-01T22:54:15.057Z,32.00
2023-03-01T22:56:50.462Z,32.87
2023-03-01T23:09:40.169Z,32.12
2023-03-01T23:12:22.221Z,32.57
2023-03-01T23:14:55.452Z,32.47
2023-03-01T23:17:30.232Z,32.90
2023-03-01T23:20:04.240Z,32.89
2023-03-01T23:22:37.181Z,32.69
2023-03-01T23:35:49.259Z,34.28
2023-03-01T23:38:22.415Z,34.17
2023-03-01T23:40:56.201Z,35.21
2023-03-01T23:43:29.432Z,34.37
2023-03-01T23:45:56.218Z,33.35
2023-03-01T23:48:36.194Z,34.93
